sensor_id;sensor_type;location;lat;lon;timestamp;pressure;altitude;pressure_sealevel;temperature;humidity
74960;BME280;63518;49.572;1.106;2022-12-07T00:01:54;100148.09;;;2.11;75.49
74960;BME280;63518;49.572;1.106;2022-12-07T00:04:23;100171.66;;;1.42;78.30
74960;BME280;63518;49.572;1.106;2022-12-07T00:06:59;100166.47;;;0.96;78.56
74960;BME280;63518;49.572;1.106;2022-12-07T00:09:36;100158.34;;;1.59;78.35
74960;BME280;63518;49.572;1.106;2022-12-07T00:12:07;100154.44;;;1.80;76.67
74960;BME280;63518;49.572;1.106;2022-12-07T00:14:34;100150.31;;;1.46;77.03
74960;BME280;63518;49.572;1.106;2022-12-07T00:17:04;100144.13;;;1.32;77.85
74960;BME280;63518;49.572;1.106;2022-12-07T00:19:33;100132.59;;;0.98;78.79
74960;BME280;63518;49.572;1.106;2022-12-07T00:22:06;100108.06;;;1.36;77.49
74960;BME280;63518;49.572;1.106;2022-12-07T00:24:43;100151.84;;;1.60;74.84
74960;BME280;63518;49.572;1.106;2022-12-07T00:27:17;100150.75;;;1.36;76.10
74960;BME280;63518;49.572;1.106;2022-12-07T00:29:50;100140.38;;;1.26;77.01
74960;BME280;63518;49.572;1.106;2022-12-07T00:32:26;100156.41;;;1.41;77.92
74960;BME280;63518;49.572;1.106;2022-12-07T00:35:14;100139.59;;;1.76;74.17
74960;BME280;63518;49.572;1.106;2022-12-07T00:37:56;100121.25;;;1.39;74.06
74960;BME280;63518;49.572;1.106;2022-12-07T00:40:23;100142.31;;;0.74;79.75
74960;BME280;63518;49.572;1.106;2022-12-07T00:43:00;100141.09;;;0.64;79.31
74960;BME280;63518;49.572;1.106;2022-12-07T00:45:27;100139.34;;;1.21;77.67
74960;BME280;63518;49.572;1.106;2022-12-07T00:47:56;100128.72;;;1.12;78.13
74960;BME280;63518;49.572;1.106;2022-12-07T00:50:34;100133.53;;;1.17;76.89
74960;BME280;63518;49.572;1.106;2022-12-07T00:53:06;100111.78;;;0.79;77.38
74960;BME280;63518;49.572;1.106;2022-12-07T00:55:34;100132.03;;;0.83;78.17
74960;BME280;63518;49.572;1.106;2022-12-07T00:58:08;100129.84;;;0.60;79.23
74960;BME280;63518;49.572;1.106;2022-12-07T01:00:42;100126.91;;;0.55;81.04
74960;BME280;63518;49.572;1.106;2022-12-07T01:03:14;100130.38;;;1.20;77.99
74960;BME280;63518;49.572;1.106;2022-12-07T01:05:54;100136.00;;;1.25;76.39
74960;BME280;63518;49.572;1.106;2022-12-07T01:08:28;100118.94;;;1.05;74.96
74960;BME280;63518;49.572;1.106;2022-12-07T01:11:05;100123.56;;;1.04;74.84
74960;BME280;63518;49.572;1.106;2022-12-07T01:13:35;100125.06;;;1.00;75.17
74960;BME280;63518;49.572;1.106;2022-12-07T01:16:06;100118.38;;;0.96;75.94
74960;BME280;63518;49.572;1.106;2022-12-07T01:18:52;100105.81;;;1.02;76.01
74960;BME280;63518;49.572;1.106;2022-12-07T01:21:26;100101.28;;;1.21;75.46
74960;BME280;63518;49.572;1.106;2022-12-07T01:23:57;100107.22;;;1.42;75.23
74960;BME280;63518;49.572;1.106;2022-12-07T01:26:25;100117.91;;;1.69;75.67
74960;BME280;63518;49.572;1.106;2022-12-07T01:29:05;100118.50;;;1.71;75.37
74960;BME280;63518;49.572;1.106;2022-12-07T01:31:56;100101.66;;;0.99;77.70
74960;BME280;63518;49.572;1.106;2022-12-07T01:34:30;100080.53;;;0.95;78.42
74960;BME280;63518;49.572;1.106;2022-12-07T01:36:57;100115.38;;;1.11;78.06
74960;BME280;63518;49.572;1.106;2022-12-07T01:39:30;100092.47;;;1.25;77.07
74960;BME280;63518;49.572;1.106;2022-12-07T01:41:57;100107.06;;;1.37;76.79
74960;BME280;63518;49.572;1.106;2022-12-07T01:45:30;100103.34;;;1.25;77.18
74960;BME280;63518;49.572;1.106;2022-12-07T01:48:07;100118.94;;;1.93;74.63
74960;BME280;63518;49.572;1.106;2022-12-07T01:50:45;100102.84;;;1.66;75.48
74960;BME280;63518;49.572;1.106;2022-12-07T01:53:49;100069.81;;;0.68;77.85
74960;BME280;63518;49.572;1.106;2022-12-07T01:56:23;100104.13;;;1.01;77.25
74960;BME280;63518;49.572;1.106;2022-12-07T01:59:02;100127.69;;;0.75;79.27
74960;BME280;63518;49.572;1.106;2022-12-07T02:01:32;100096.53;;;1.16;77.76
74960;BME280;63518;49.572;1.106;2022-12-07T02:04:03;100103.31;;;1.00;78.60
74960;BME280;63518;49.572;1.106;2022-12-07T02:06:34;100100.59;;;1.32;77.52
74960;BME280;63518;49.572;1.106;2022-12-07T02:09:04;100108.22;;;1.17;77.97
74960;BME280;63518;49.572;1.106;2022-12-07T02:11:44;100110.91;;;1.80;75.93
74960;BME280;63518;49.572;1.106;2022-12-07T02:14:13;100113.75;;;1.60;77.09
74960;BME280;63518;49.572;1.106;2022-12-07T02:19:50;100120.16;;;1.47;75.97
74960;BME280;63518;49.572;1.106;2022-12-07T02:23:04;100115.69;;;1.53;76.09
74960;BME280;63518;49.572;1.106;2022-12-07T02:28:30;100115.84;;;1.01;76.42
74960;BME280;63518;49.572;1.106;2022-12-07T02:31:11;100113.41;;;0.86;77.04
74960;BME280;63518;49.572;1.106;2022-12-07T02:34:11;100109.56;;;0.56;79.51
74960;BME280;63518;49.572;1.106;2022-12-07T02:36:49;100101.72;;;0.79;78.68
74960;BME280;63518;49.572;1.106;2022-12-07T02:39:31;100102.34;;;0.81;77.42
74960;BME280;63518;49.572;1.106;2022-12-07T02:42:09;100096.16;;;0.03;77.49
74960;BME280;63518;49.572;1.106;2022-12-07T02:44:42;100113.56;;;0.53;76.24
74960;BME280;63518;49.572;1.106;2022-12-07T02:47:16;100111.06;;;0.45;77.27
74960;BME280;63518;49.572;1.106;2022-12-07T02:49:44;100075.47;;;0.02;78.45
74960;BME280;63518;49.572;1.106;2022-12-07T02:52:14;100088.63;;;0.12;77.61
74960;BME280;63518;49.572;1.106;2022-12-07T02:54:54;100086.09;;;0.10;76.48
74960;BME280;63518;49.572;1.106;2022-12-07T02:57:52;100103.19;;;0.30;76.20
74960;BME280;63518;49.572;1.106;2022-12-07T03:00:28;100092.56;;;0.09;76.08
74960;BME280;63518;49.572;1.106;2022-12-07T03:03:01;100088.66;;;-0.08;78.16
74960;BME280;63518;49.572;1.106;2022-12-07T03:05:49;100100.44;;;0.44;77.48
74960;BME280;63518;49.572;1.106;2022-12-07T03:11:01;100081.31;;;0.19;78.40
74960;BME280;63518;49.572;1.106;2022-12-07T03:13:39;100091.00;;;0.53;75.62
74960;BME280;63518;49.572;1.106;2022-12-07T03:18:52;100085.69;;;0.20;77.77
74960;BME280;63518;49.572;1.106;2022-12-07T03:21:46;100087.28;;;0.34;76.97
74960;BME280;63518;49.572;1.106;2022-12-07T03:24:23;100078.16;;;0.09;76.36
74960;BME280;63518;49.572;1.106;2022-12-07T03:26:59;100064.44;;;0.04;76.14
74960;BME280;63518;49.572;1.106;2022-12-07T03:29:39;100079.41;;;0.19;75.60
74960;BME280;63518;49.572;1.106;2022-12-07T03:35:17;100079.06;;;-0.04;75.90
74960;BME280;63518;49.572;1.106;2022-12-07T03:43:13;100078.44;;;-0.46;76.86
74960;BME280;63518;49.572;1.106;2022-12-07T03:46:23;100079.06;;;-0.17;76.84
74960;BME280;63518;49.572;1.106;2022-12-07T03:54:36;100066.31;;;-0.10;76.70
74960;BME280;63518;49.572;1.106;2022-12-07T03:57:07;100074.91;;;-0.27;76.88
74960;BME280;63518;49.572;1.106;2022-12-07T03:59:37;100050.31;;;-0.65;79.34
74960;BME280;63518;49.572;1.106;2022-12-07T04:02:06;100077.84;;;-0.35;79.72
74960;BME280;63518;49.572;1.106;2022-12-07T04:04:44;100070.53;;;-0.28;78.23
74960;BME280;63518;49.572;1.106;2022-12-07T04:07:22;100071.97;;;-0.38;77.96
74960;BME280;63518;49.572;1.106;2022-12-07T04:09:55;100065.28;;;-0.22;77.17
74960;BME280;63518;49.572;1.106;2022-12-07T04:12:22;100068.66;;;-0.67;77.68
74960;BME280;63518;49.572;1.106;2022-12-07T04:14:54;100064.50;;;-0.49;77.46
74960;BME280;63518;49.572;1.106;2022-12-07T04:17:27;100068.84;;;-0.88;78.44
74960;BME280;63518;49.572;1.106;2022-12-07T04:20:06;100060.75;;;-0.68;77.88
74960;BME280;63518;49.572;1.106;2022-12-07T04:22:36;100059.91;;;-0.49;77.34
74960;BME280;63518;49.572;1.106;2022-12-07T04:25:08;100042.56;;;-0.55;76.22
74960;BME280;63518;49.572;1.106;2022-12-07T04:27:36;100055.53;;;-0.50;76.22
74960;BME280;63518;49.572;1.106;2022-12-07T04:30:10;100041.75;;;-0.82;78.65
74960;BME280;63518;49.572;1.106;2022-12-07T04:32:39;100054.25;;;-0.41;77.58
74960;BME280;63518;49.572;1.106;2022-12-07T04:35:08;100065.94;;;-0.34;77.02
74960;BME280;63518;49.572;1.106;2022-12-07T04:37:38;100060.09;;;-0.37;77.27
74960;BME280;63518;49.572;1.106;2022-12-07T04:40:08;100061.56;;;-0.28;76.08
74960;BME280;63518;49.572;1.106;2022-12-07T04:42:38;100056.56;;;-0.51;78.13
74960;BME280;63518;49.572;1.106;2022-12-07T04:45:25;100055.75;;;-0.51;77.62
74960;BME280;63518;49.572;1.106;2022-12-07T04:47:58;100052.59;;;-0.48;76.35
74960;BME280;63518;49.572;1.106;2022-12-07T04:50:26;100064.06;;;-0.27;76.33
74960;BME280;63518;49.572;1.106;2022-12-07T04:52:58;100045.91;;;-0.19;77.01
74960;BME280;63518;49.572;1.106;2022-12-07T04:55:25;100033.16;;;-0.26;76.01
74960;BME280;63518;49.572;1.106;2022-12-07T04:57:55;100030.66;;;-0.27;77.41
74960;BME280;63518;49.572;1.106;2022-12-07T05:00:22;100045.47;;;-0.23;76.86
74960;BME280;63518;49.572;1.106;2022-12-07T05:02:56;100038.81;;;-0.20;75.08
74960;BME280;63518;49.572;1.106;2022-12-07T05:05:23;100037.75;;;-0.33;75.52
74960;BME280;63518;49.572;1.106;2022-12-07T05:07:53;100048.41;;;-0.38;75.94
74960;BME280;63518;49.572;1.106;2022-12-07T05:10:23;100048.81;;;-0.21;75.51
74960;BME280;63518;49.572;1.106;2022-12-07T05:12:53;100054.47;;;-0.36;76.12
74960;BME280;63518;49.572;1.106;2022-12-07T05:15:23;100037.75;;;-0.33;76.80
74960;BME280;63518;49.572;1.106;2022-12-07T05:17:52;100054.66;;;-0.37;77.79
74960;BME280;63518;49.572;1.106;2022-12-07T05:20:20;100045.06;;;-0.20;77.98
74960;BME280;63518;49.572;1.106;2022-12-07T05:22:52;100050.03;;;-0.10;78.61
74960;BME280;63518;49.572;1.106;2022-12-07T05:25:27;100042.13;;;-0.25;79.50
74960;BME280;63518;49.572;1.106;2022-12-07T05:28:05;100025.03;;;0.33;76.74
74960;BME280;63518;49.572;1.106;2022-12-07T05:30:38;100057.88;;;0.76;74.32
74960;BME280;63518;49.572;1.106;2022-12-07T05:33:08;100048.94;;;0.62;75.84
74960;BME280;63518;49.572;1.106;2022-12-07T05:35:37;100061.69;;;1.00;74.73
74960;BME280;63518;49.572;1.106;2022-12-07T05:38:07;100060.50;;;0.89;75.41
74960;BME280;63518;49.572;1.106;2022-12-07T05:40:37;100050.03;;;0.03;76.97
74960;BME280;63518;49.572;1.106;2022-12-07T05:43:08;100056.78;;;-0.52;79.20
74960;BME280;63518;49.572;1.106;2022-12-07T05:45:41;100066.31;;;-1.03;80.17
74960;BME280;63518;49.572;1.106;2022-12-07T05:48:24;100056.16;;;-0.68;80.83
74960;BME280;63518;49.572;1.106;2022-12-07T05:50:55;100054.03;;;-0.13;78.29
74960;BME280;63518;49.572;1.106;2022-12-07T05:53:28;100062.78;;;-0.11;78.06
74960;BME280;63518;49.572;1.106;2022-12-07T05:55:55;100064.09;;;0.38;75.56
74960;BME280;63518;49.572;1.106;2022-12-07T05:58:37;100048.81;;;0.50;75.13
74960;BME280;63518;49.572;1.106;2022-12-07T06:01:23;100056.31;;;0.48;75.93
74960;BME280;63518;49.572;1.106;2022-12-07T06:03:57;100053.13;;;0.13;78.09
74960;BME280;63518;49.572;1.106;2022-12-07T06:06:33;100047.56;;;0.46;77.05
74960;BME280;63518;49.572;1.106;2022-12-07T06:09:03;100066.41;;;0.79;76.33
74960;BME280;63518;49.572;1.106;2022-12-07T06:11:30;100047.22;;;0.74;73.93
74960;BME280;63518;49.572;1.106;2022-12-07T06:14:21;100064.09;;;0.83;74.51
74960;BME280;63518;49.572;1.106;2022-12-07T06:16:50;100050.78;;;0.75;75.07
74960;BME280;63518;49.572;1.106;2022-12-07T06:19:20;100059.00;;;0.93;74.61
74960;BME280;63518;49.572;1.106;2022-12-07T06:21:50;100064.03;;;0.90;74.06
74960;BME280;63518;49.572;1.106;2022-12-07T06:24:20;100053.00;;;0.46;76.36
74960;BME280;63518;49.572;1.106;2022-12-07T06:26:50;100066.94;;;0.56;75.78
74960;BME280;63518;49.572;1.106;2022-12-07T06:29:17;100054.41;;;0.55;76.90
74960;BME280;63518;49.572;1.106;2022-12-07T06:31:45;100054.91;;;0.39;77.05
74960;BME280;63518;49.572;1.106;2022-12-07T06:34:20;100059.94;;;0.74;76.26
74960;BME280;63518;49.572;1.106;2022-12-07T06:36:54;100045.91;;;0.83;74.59
74960;BME280;63518;49.572;1.106;2022-12-07T06:39:24;100040.69;;;0.82;74.45
74960;BME280;63518;49.572;1.106;2022-12-07T06:41:52;100054.78;;;0.97;74.33
74960;BME280;63518;49.572;1.106;2022-12-07T06:44:21;100060.09;;;0.85;76.85
74960;BME280;63518;49.572;1.106;2022-12-07T06:46:54;100059.59;;;0.64;78.40
74960;BME280;63518;49.572;1.106;2022-12-07T06:49:44;100052.13;;;0.52;77.96
74960;BME280;63518;49.572;1.106;2022-12-07T06:52:13;100061.13;;;0.91;76.53
74960;BME280;63518;49.572;1.106;2022-12-07T06:54:54;100061.94;;;0.98;74.79
74960;BME280;63518;49.572;1.106;2022-12-07T06:57:21;100065.66;;;0.97;75.06
74960;BME280;63518;49.572;1.106;2022-12-07T06:59:54;100051.09;;;0.53;76.62
74960;BME280;63518;49.572;1.106;2022-12-07T07:02:26;100064.91;;;0.90;77.71
74960;BME280;63518;49.572;1.106;2022-12-07T07:05:05;100080.13;;;0.98;78.16
74960;BME280;63518;49.572;1.106;2022-12-07T07:07:44;100066.34;;;0.93;75.60
74960;BME280;63518;49.572;1.106;2022-12-07T07:10:37;100073.72;;;1.17;75.92
74960;BME280;63518;49.572;1.106;2022-12-07T07:13:14;100068.97;;;1.37;74.65
74960;BME280;63518;49.572;1.106;2022-12-07T07:15:48;100055.69;;;1.48;76.32
74960;BME280;63518;49.572;1.106;2022-12-07T07:18:39;100071.34;;;1.52;76.67
74960;BME280;63518;49.572;1.106;2022-12-07T07:21:12;100062.75;;;1.55;74.84
74960;BME280;63518;49.572;1.106;2022-12-07T07:23:43;100063.69;;;1.67;76.01
74960;BME280;63518;49.572;1.106;2022-12-07T07:26:15;100061.56;;;0.81;75.27
74960;BME280;63518;49.572;1.106;2022-12-07T07:28:59;100059.94;;;1.12;77.12
74960;BME280;63518;49.572;1.106;2022-12-07T07:31:28;100060.88;;;0.99;77.64
74960;BME280;63518;49.572;1.106;2022-12-07T07:34:11;100065.28;;;0.94;76.78
74960;BME280;63518;49.572;1.106;2022-12-07T07:36:45;100050.63;;;0.95;75.66
74960;BME280;63518;49.572;1.106;2022-12-07T07:39:17;100059.59;;;1.02;75.36
74960;BME280;63518;49.572;1.106;2022-12-07T07:41:52;100068.72;;;1.14;75.21
74960;BME280;63518;49.572;1.106;2022-12-07T07:44:23;100059.84;;;0.55;77.30
74960;BME280;63518;49.572;1.106;2022-12-07T07:46:55;100068.25;;;0.41;77.71
74960;BME280;63518;49.572;1.106;2022-12-07T07:49:25;100069.06;;;0.48;78.14
74960;BME280;63518;49.572;1.106;2022-12-07T07:51:52;100067.06;;;0.75;76.69
74960;BME280;63518;49.572;1.106;2022-12-07T07:54:22;100072.13;;;0.65;76.11
74960;BME280;63518;49.572;1.106;2022-12-07T07:57:01;100068.50;;;0.26;78.33
74960;BME280;63518;49.572;1.106;2022-12-07T07:59:30;100059.97;;;0.29;77.87
74960;BME280;63518;49.572;1.106;2022-12-07T08:01:59;100082.97;;;0.71;75.78
74960;BME280;63518;49.572;1.106;2022-12-07T08:04:44;100074.75;;;0.40;76.13
74960;BME280;63518;49.572;1.106;2022-12-07T08:07:16;100088.19;;;0.21;76.43
74960;BME280;63518;49.572;1.106;2022-12-07T08:09:46;100074.50;;;0.48;75.62
74960;BME280;63518;49.572;1.106;2022-12-07T08:12:19;100075.97;;;0.50;75.74
74960;BME280;63518;49.572;1.106;2022-12-07T08:15:01;100091.00;;;0.53;75.89
74960;BME280;63518;49.572;1.106;2022-12-07T08:17:53;100067.25;;;0.73;75.34
74960;BME280;63518;49.572;1.106;2022-12-07T08:23:16;100093.56;;;0.79;75.20
74960;BME280;63518;49.572;1.106;2022-12-07T08:26:07;100097.81;;;1.13;74.63
74960;BME280;63518;49.572;1.106;2022-12-07T08:28:41;100093.75;;;1.23;74.45
74960;BME280;63518;49.572;1.106;2022-12-07T08:31:46;100089.09;;;-0.18;77.76
74960;BME280;63518;49.572;1.106;2022-12-07T08:34:19;100099.09;;;-0.45;80.09
74960;BME280;63518;49.572;1.106;2022-12-07T08:36:58;100105.09;;;0.10;77.63
74960;BME280;63518;49.572;1.106;2022-12-07T08:39:31;100099.94;;;-0.05;77.62
74960;BME280;63518;49.572;1.106;2022-12-07T08:41:59;100097.72;;;0.89;76.74
74960;BME280;63518;49.572;1.106;2022-12-07T08:44:30;100100.28;;;1.15;75.50
74960;BME280;63518;49.572;1.106;2022-12-07T08:47:08;100096.16;;;0.68;77.57
74960;BME280;63518;49.572;1.106;2022-12-07T08:49:46;100102.81;;;0.20;78.35
74960;BME280;63518;49.572;1.106;2022-12-07T08:52:27;100093.88;;;1.03;77.60
74960;BME280;63518;49.572;1.106;2022-12-07T08:54:58;100090.63;;;1.51;76.96
74960;BME280;63518;49.572;1.106;2022-12-07T08:57:36;100094.88;;;1.90;75.67
74960;BME280;63518;49.572;1.106;2022-12-07T09:00:32;100081.78;;;1.80;74.50
74960;BME280;63518;49.572;1.106;2022-12-07T09:03:21;100085.50;;;1.86;74.05
74960;BME280;63518;49.572;1.106;2022-12-07T09:05:57;100094.00;;;1.96;76.52
74960;BME280;63518;49.572;1.106;2022-12-07T09:08:51;100078.88;;;1.75;76.69
74960;BME280;63518;49.572;1.106;2022-12-07T09:11:22;100101.50;;;2.01;76.63
74960;BME280;63518;49.572;1.106;2022-12-07T09:13:55;100102.88;;;2.28;74.90
74960;BME280;63518;49.572;1.106;2022-12-07T09:16:28;100100.91;;;2.53;73.24
74960;BME280;63518;49.572;1.106;2022-12-07T09:19:19;100091.22;;;2.58;73.54
74960;BME280;63518;49.572;1.106;2022-12-07T09:21:57;100100.84;;;1.80;76.99
74960;BME280;63518;49.572;1.106;2022-12-07T09:24:43;100099.84;;;2.73;75.41
74960;BME280;63518;49.572;1.106;2022-12-07T09:27:12;100088.09;;;3.02;75.35
74960;BME280;63518;49.572;1.106;2022-12-07T09:29:54;100092.97;;;3.30;74.32
74960;BME280;63518;49.572;1.106;2022-12-07T09:32:30;100097.19;;;3.56;74.77
74960;BME280;63518;49.572;1.106;2022-12-07T09:35:00;100090.19;;;3.19;75.58
74960;BME280;63518;49.572;1.106;2022-12-07T09:37:37;100102.66;;;3.56;75.40
74960;BME280;63518;49.572;1.106;2022-12-07T09:40:13;100084.28;;;3.63;74.28
74960;BME280;63518;49.572;1.106;2022-12-07T09:42:51;100100.19;;;3.78;73.25
74960;BME280;63518;49.572;1.106;2022-12-07T09:48:28;100097.72;;;3.88;73.82
74960;BME280;63518;49.572;1.106;2022-12-07T09:51:22;100092.25;;;4.12;74.66
74960;BME280;63518;49.572;1.106;2022-12-07T09:54:08;100099.50;;;4.06;76.22
74960;BME280;63518;49.572;1.106;2022-12-07T09:56:56;100091.06;;;4.31;75.15
74960;BME280;63518;49.572;1.106;2022-12-07T09:59:33;100087.22;;;4.44;75.24
74960;BME280;63518;49.572;1.106;2022-12-07T10:02:46;100083.78;;;3.55;77.69
74960;BME280;63518;49.572;1.106;2022-12-07T10:05:27;100068.56;;;3.05;78.74
74960;BME280;63518;49.572;1.106;2022-12-07T10:08:00;100077.28;;;3.26;78.67
74960;BME280;63518;49.572;1.106;2022-12-07T10:10:56;100057.00;;;3.22;76.93
74960;BME280;63518;49.572;1.106;2022-12-07T10:13:41;100059.88;;;2.97;79.11
74960;BME280;63518;49.572;1.106;2022-12-07T10:19:26;100077.00;;;3.04;76.61
74960;BME280;63518;49.572;1.106;2022-12-07T10:22:13;100077.47;;;0.84;78.09
74960;BME280;63518;49.572;1.106;2022-12-07T10:24:42;100068.78;;;2.74;80.75
74960;BME280;63518;49.572;1.106;2022-12-07T10:27:25;100051.16;;;3.72;79.69
74960;BME280;63518;49.572;1.106;2022-12-07T10:29:54;100071.47;;;2.44;79.16
74960;BME280;63518;49.572;1.106;2022-12-07T10:32:34;100063.72;;;4.19;78.63
74960;BME280;63518;49.572;1.106;2022-12-07T10:35:28;100060.03;;;2.53;75.97
74960;BME280;63518;49.572;1.106;2022-12-07T10:38:16;100062.56;;;4.15;81.13
74960;BME280;63518;49.572;1.106;2022-12-07T10:41:06;100059.56;;;4.29;77.24
74960;BME280;63518;49.572;1.106;2022-12-07T10:43:36;100070.56;;;5.14;75.26
74960;BME280;63518;49.572;1.106;2022-12-07T10:55:54;100054.41;;;3.27;78.99
74960;BME280;63518;49.572;1.106;2022-12-07T11:04:28;100032.28;;;3.93;74.47
74960;BME280;63518;49.572;1.106;2022-12-07T11:13:56;100034.28;;;4.21;73.59
74960;BME280;63518;49.572;1.106;2022-12-07T11:22:06;100021.78;;;4.94;73.30
74960;BME280;63518;49.572;1.106;2022-12-07T11:28:00;100012.25;;;4.68;75.16
74960;BME280;63518;49.572;1.106;2022-12-07T11:31:05;100009.28;;;4.98;73.13
74960;BME280;63518;49.572;1.106;2022-12-07T11:33:50;100016.38;;;5.45;72.96
74960;BME280;63518;49.572;1.106;2022-12-07T11:39:41;99995.22;;;5.57;73.38
74960;BME280;63518;49.572;1.106;2022-12-07T11:42:51;99993.56;;;6.33;75.54
74960;BME280;63518;49.572;1.106;2022-12-07T11:45:34;99987.47;;;6.75;73.37
74960;BME280;63518;49.572;1.106;2022-12-07T11:48:35;99975.41;;;7.03;71.63
74960;BME280;63518;49.572;1.106;2022-12-07T11:51:09;99976.38;;;7.19;74.23
74960;BME280;63518;49.572;1.106;2022-12-07T11:53:51;99962.38;;;7.20;72.74
74960;BME280;63518;49.572;1.106;2022-12-07T11:56:36;99929.75;;;7.24;74.06
74960;BME280;63518;49.572;1.106;2022-12-07T11:59:19;99954.75;;;7.27;73.62
74960;BME280;63518;49.572;1.106;2022-12-07T12:02:03;99957.34;;;7.12;73.77
74960;BME280;63518;49.572;1.106;2022-12-07T12:05:33;99962.72;;;7.29;69.15
74960;BME280;63518;49.572;1.106;2022-12-07T12:08:45;99958.16;;;7.08;69.87
74960;BME280;63518;49.572;1.106;2022-12-07T12:15:16;99960.41;;;6.84;68.87
74960;BME280;63518;49.572;1.106;2022-12-07T12:21:06;99948.53;;;6.51;74.29
74960;BME280;63518;49.572;1.106;2022-12-07T12:23:42;99937.78;;;6.44;72.21
74960;BME280;63518;49.572;1.106;2022-12-07T12:26:47;99942.75;;;6.26;70.81
74960;BME280;63518;49.572;1.106;2022-12-07T12:29:37;99951.53;;;4.66;73.83
74960;BME280;63518;49.572;1.106;2022-12-07T12:32:17;99949.19;;;5.20;76.08
74960;BME280;63518;49.572;1.106;2022-12-07T12:37:53;99945.66;;;4.74;74.27
74960;BME280;63518;49.572;1.106;2022-12-07T12:43:46;99931.41;;;5.40;77.20
74960;BME280;63518;49.572;1.106;2022-12-07T12:51:51;99936.31;;;7.23;73.15
74960;BME280;63518;49.572;1.106;2022-12-07T12:54:26;99933.44;;;7.45;74.30
74960;BME280;63518;49.572;1.106;2022-12-07T12:59:36;99915.97;;;7.19;72.07
74960;BME280;63518;49.572;1.106;2022-12-07T13:13:00;99910.66;;;5.44;75.49
74960;BME280;63518;49.572;1.106;2022-12-07T13:34:33;99880.53;;;4.88;74.87
74960;BME280;63518;49.572;1.106;2022-12-07T13:37:15;99877.56;;;4.44;74.26
74960;BME280;63518;49.572;1.106;2022-12-07T13:40:17;99876.28;;;4.97;76.03
74960;BME280;63518;49.572;1.106;2022-12-07T13:43:21;99856.44;;;4.23;74.37
74960;BME280;63518;49.572;1.106;2022-12-07T13:46:11;99862.47;;;4.70;73.86
74960;BME280;63518;49.572;1.106;2022-12-07T13:48:50;99870.19;;;4.45;75.21
74960;BME280;63518;49.572;1.106;2022-12-07T13:51:34;99869.25;;;4.22;73.79
74960;BME280;63518;49.572;1.106;2022-12-07T13:54:13;99874.91;;;4.95;73.72
74960;BME280;63518;49.572;1.106;2022-12-07T13:56:49;99850.34;;;4.66;72.96
74960;BME280;63518;49.572;1.106;2022-12-07T13:59:27;99852.41;;;4.76;72.32
74960;BME280;63518;49.572;1.106;2022-12-07T14:02:16;99863.41;;;5.15;72.28
74960;BME280;63518;49.572;1.106;2022-12-07T14:05:05;99830.66;;;5.58;73.30
74960;BME280;63518;49.572;1.106;2022-12-07T14:13:59;99847.47;;;5.67;71.94
74960;BME280;63518;49.572;1.106;2022-12-07T14:16:37;99842.88;;;5.73;68.55
74960;BME280;63518;49.572;1.106;2022-12-07T14:22:29;99842.13;;;5.99;71.70
74960;BME280;63518;49.572;1.106;2022-12-07T14:28:35;99840.84;;;4.86;70.97
74960;BME280;63518;49.572;1.106;2022-12-07T14:31:17;99837.97;;;5.14;70.08
74960;BME280;63518;49.572;1.106;2022-12-07T14:33:59;99831.59;;;4.25;70.91
74960;BME280;63518;49.572;1.106;2022-12-07T14:36:26;99819.41;;;4.15;73.11
74960;BME280;63518;49.572;1.106;2022-12-07T14:39:30;99827.38;;;4.34;73.76
74960;BME280;63518;49.572;1.106;2022-12-07T14:41:57;99815.00;;;4.14;74.49
74960;BME280;63518;49.572;1.106;2022-12-07T14:44:25;99812.97;;;4.21;73.00
74960;BME280;63518;49.572;1.106;2022-12-07T14:47:01;99819.28;;;4.10;74.69
74960;BME280;63518;49.572;1.106;2022-12-07T14:49:50;99818.28;;;4.00;74.70
74960;BME280;63518;49.572;1.106;2022-12-07T14:52:28;99816.34;;;3.83;74.48
74960;BME280;63518;49.572;1.106;2022-12-07T14:55:33;99817.03;;;4.53;75.04
74960;BME280;63518;49.572;1.106;2022-12-07T14:58:16;99810.09;;;4.78;71.82
74960;BME280;63518;49.572;1.106;2022-12-07T15:00:53;99805.25;;;5.02;73.94
74960;BME280;63518;49.572;1.106;2022-12-07T15:03:40;99806.34;;;5.01;73.94
74960;BME280;63518;49.572;1.106;2022-12-07T15:06:16;99817.03;;;5.03;75.04
74960;BME280;63518;49.572;1.106;2022-12-07T15:08:46;99801.25;;;5.10;72.72
74960;BME280;63518;49.572;1.106;2022-12-07T15:11:22;99796.19;;;5.19;73.79
74960;BME280;63518;49.572;1.106;2022-12-07T15:13:58;99806.03;;;5.20;72.95
74960;BME280;63518;49.572;1.106;2022-12-07T15:16:52;99796.66;;;4.94;73.86
74960;BME280;63518;49.572;1.106;2022-12-07T15:19:45;99817.34;;;4.90;71.42
74960;BME280;63518;49.572;1.106;2022-12-07T15:22:15;99775.75;;;4.20;71.58
74960;BME280;63518;49.572;1.106;2022-12-07T15:25:16;99809.84;;;4.46;74.28
74960;BME280;63518;49.572;1.106;2022-12-07T15:28:04;99813.25;;;4.54;75.09
74960;BME280;63518;49.572;1.106;2022-12-07T15:30:40;99809.50;;;4.43;74.42
74960;BME280;63518;49.572;1.106;2022-12-07T15:33:32;99804.69;;;4.50;75.16
74960;BME280;63518;49.572;1.106;2022-12-07T15:36:05;99776.44;;;4.28;74.61
74960;BME280;63518;49.572;1.106;2022-12-07T15:38:44;99779.16;;;4.28;74.12
74960;BME280;63518;49.572;1.106;2022-12-07T15:41:31;99785.28;;;4.18;72.35
74960;BME280;63518;49.572;1.106;2022-12-07T15:44:14;99788.13;;;4.23;73.87
74960;BME280;63518;49.572;1.106;2022-12-07T15:47:00;99780.81;;;4.29;74.17
74960;BME280;63518;49.572;1.106;2022-12-07T15:49:30;99782.66;;;4.40;73.67
74960;BME280;63518;49.572;1.106;2022-12-07T15:52:05;99768.06;;;4.51;73.83
74960;BME280;63518;49.572;1.106;2022-12-07T15:54:42;99759.56;;;4.47;72.26
74960;BME280;63518;49.572;1.106;2022-12-07T15:57:11;99781.81;;;4.06;72.31
74960;BME280;63518;49.572;1.106;2022-12-07T15:59:51;99771.53;;;3.68;73.90
74960;BME280;63518;49.572;1.106;2022-12-07T16:02:41;99760.59;;;3.68;74.57
74960;BME280;63518;49.572;1.106;2022-12-07T16:05:23;99740.44;;;3.17;75.44
74960;BME280;63518;49.572;1.106;2022-12-07T16:08:12;99762.69;;;3.25;75.41
74960;BME280;63518;49.572;1.106;2022-12-07T16:10:45;99757.56;;;2.89;76.19